This is the latest recevied weather packets stored in our database for station/object M0SDM. If no packets are shown the sender has not sent any weather packets the latest 10 day(s).
| Time | Temp. | Humidity | Pressure | Rain* | Wind** | Luminosity | Snow |
|---|---|---|---|---|---|---|---|
| 1777718421 | 16.67° C | 68% | 1014.7 hPa | 0 mm | - | - | - |
| 1777717521 | 16.11° C | 68% | 1014.7 hPa | 0 mm | - | - | - |
| 1777716621 | 15.56° C | 71% | 1015 hPa | 0 mm | - | - | - |
| 1777715721 | 15.56° C | 69% | 1015.2 hPa | 0 mm | - | - | - |
| 1777714821 | 15° C | 74% | 1015.4 hPa | 0 mm | - | - | - |
| 1777713921 | 14.44° C | 76% | 1015.5 hPa | 0 mm | - | - | - |
| 1777713021 | 13.89° C | 79% | 1015.7 hPa | 0 mm | - | - | - |
| 1777712121 | 13.89° C | 80% | 1015.5 hPa | 0 mm | - | - | - |
| 1777711221 | 12.78° C | 83% | 1015.8 hPa | 0 mm | - | - | - |
| 1777710321 | 12.22° C | 85% | 1016.1 hPa | 0 mm | - | - | - |
| 1777709421 | 11.67° C | 85% | 1016 hPa | 0 mm | - | - | - |
| 1777708521 | 11.67° C | 87% | 1015.9 hPa | 0 mm | - | - | - |
| 1777707621 | 11.11° C | 87% | 1016.1 hPa | 0 mm | - | - | - |
| 1777706721 | 11.11° C | 88% | 1016.2 hPa | 0 mm | - | - | - |
| 1777705821 | 10.56° C | 90% | 1016.2 hPa | 0 mm | - | - | - |
| 1777704921 | 10.56° C | 90% | 1016 hPa | 0 mm | - | - | - |
| 1777704021 | 10° C | 93% | 1015.9 hPa | 0 mm | - | - | - |
| 1777703121 | 10° C | 93% | 1015.9 hPa | 0 mm | - | - | - |
| 1777702221 | 9.44° C | 93% | 1015.7 hPa | 0 mm | - | - | - |
| 1777701321 | 9.44° C | 93% | 1016 hPa | 0 mm | - | - | - |
| 1777700421 | 9.44° C | 93% | 1016 hPa | 0 mm | - | - | - |
| 1777699521 | 9.44° C | 93% | 1015.8 hPa | 0 mm | - | - | - |
| 1777698621 | 9.44° C | 94% | 1015.8 hPa | 0 mm | - | - | - |
| 1777697721 | 9.44° C | 95% | 1016 hPa | 0 mm | - | - | - |
| 1777696821 | 9.44° C | 95% | 1015.9 hPa | 0 mm | - | - | - |
* Rain latest hour (hover to see other rain measurements)
** Current wind speed in m/s (hover to see current wind gust speed)